createdAt,value
2022-10-04T00:01:32.000Z,9.4
2022-10-04T00:04:17.000Z,9.4
2022-10-04T00:07:01.000Z,9.4
2022-10-04T00:09:46.000Z,9.4
2022-10-04T00:12:31.000Z,9.4
2022-10-04T00:15:15.000Z,9.3
2022-10-04T00:18:00.000Z,9.3
2022-10-04T00:19:18.000Z,9.3
2022-10-04T00:20:45.000Z,9.3
2022-10-04T00:23:29.000Z,9.2
2022-10-04T00:26:14.000Z,9.1
2022-10-04T00:28:59.000Z,9.1
2022-10-04T00:31:43.000Z,9.1
2022-10-04T00:34:28.000Z,9.2
2022-10-04T00:37:12.000Z,9.3
2022-10-04T00:39:57.000Z,9.3
2022-10-04T00:42:42.000Z,9.3
2022-10-04T00:45:26.000Z,9.3
2022-10-04T00:46:44.000Z,9.4
2022-10-04T00:48:11.000Z,9.4
2022-10-04T00:50:56.000Z,9.4
2022-10-04T00:53:40.000Z,9.2
2022-10-04T00:56:25.000Z,9.1
2022-10-04T00:59:10.000Z,9.2
2022-10-04T01:01:54.000Z,9.2
2022-10-04T01:04:39.000Z,9.2
2022-10-04T01:07:23.000Z,9.2
2022-10-04T01:10:08.000Z,9.4
2022-10-04T01:12:53.000Z,9.4
2022-10-04T01:14:11.000Z,9.4
2022-10-04T01:15:37.000Z,9.4
2022-10-04T01:18:22.000Z,9.4
2022-10-04T01:21:07.000Z,9.3
2022-10-04T01:26:36.000Z,9.3
2022-10-04T01:29:21.000Z,9.4
2022-10-04T01:32:05.000Z,9.4
2022-10-04T01:34:50.000Z,9.4
2022-10-04T01:37:35.000Z,9.4
2022-10-04T01:40:19.000Z,9.5
2022-10-04T01:41:37.000Z,9.5
2022-10-04T01:43:04.000Z,9.6
2022-10-04T01:45:48.000Z,9.6
2022-10-04T01:48:33.000Z,9.5
2022-10-04T01:51:18.000Z,9.5
2022-10-04T01:54:02.000Z,9.5
2022-10-04T01:56:47.000Z,9.5
2022-10-04T01:59:32.000Z,9.5
2022-10-04T02:02:16.000Z,9.5
2022-10-04T02:05:01.000Z,9.5
2022-10-04T02:07:46.000Z,9.5
2022-10-04T02:09:03.000Z,9.5
2022-10-04T02:10:30.000Z,9.5
2022-10-04T02:13:15.000Z,9.5
2022-10-04T02:16:00.000Z,9.5
2022-10-04T02:18:44.000Z,9.5
2022-10-04T02:21:29.000Z,9.5
2022-10-04T02:24:13.000Z,9.4
2022-10-04T02:26:58.000Z,9.3
2022-10-04T02:29:43.000Z,9.3
2022-10-04T02:32:27.000Z,9.3
2022-10-04T02:35:12.000Z,9.2
2022-10-04T02:36:30.000Z,9.3
2022-10-04T02:37:57.000Z,9.3
2022-10-04T02:40:41.000Z,9.3
2022-10-04T02:43:26.000Z,9.3
2022-10-04T02:46:11.000Z,9.3
2022-10-04T02:48:55.000Z,9.3
2022-10-04T02:51:40.000Z,9.3
2022-10-04T02:54:24.000Z,9.3
2022-10-04T02:57:09.000Z,9.3
2022-10-04T02:59:54.000Z,9.3
2022-10-04T03:02:38.000Z,9.3
2022-10-04T03:03:56.000Z,9.3
2022-10-04T03:05:23.000Z,9.2
2022-10-04T03:08:08.000Z,9.2
2022-10-04T03:10:52.000Z,9.3
2022-10-04T03:13:37.000Z,9.3
2022-10-04T03:16:22.000Z,9.4
2022-10-04T03:19:06.000Z,9.4
2022-10-04T03:21:51.000Z,9.4
2022-10-04T03:24:36.000Z,9.3
2022-10-04T03:27:20.000Z,9.3
2022-10-04T03:30:05.000Z,9.4
2022-10-04T03:31:23.000Z,9.4
2022-10-04T03:32:49.000Z,9.5
2022-10-04T03:35:34.000Z,9.5
2022-10-04T03:38:19.000Z,9.4
2022-10-04T03:41:03.000Z,9.4
2022-10-04T03:43:48.000Z,9.4
2022-10-04T03:46:33.000Z,9.4
2022-10-04T03:49:17.000Z,9.4
2022-10-04T03:52:02.000Z,9.3
2022-10-04T03:54:47.000Z,9.3
2022-10-04T03:57:31.000Z,9.3
2022-10-04T03:58:49.000Z,9.3
2022-10-04T04:00:16.000Z,9.3
2022-10-04T04:03:00.000Z,9.3
2022-10-04T04:05:45.000Z,9.3
2022-10-04T04:08:30.000Z,9.3
2022-10-04T04:11:14.000Z,9.3
2022-10-04T04:13:59.000Z,9.3
2022-10-04T04:16:44.000Z,9.3
2022-10-04T04:19:28.000Z,9.3
2022-10-04T04:22:13.000Z,9.3
2022-10-04T04:24:58.000Z,9.2
2022-10-04T04:27:42.000Z,9.2
2022-10-04T04:30:27.000Z,9.2
2022-10-04T04:33:12.000Z,9.2
2022-10-04T04:35:56.000Z,9.2
2022-10-04T04:38:41.000Z,9.2
2022-10-04T04:41:25.000Z,9.1
2022-10-04T04:44:10.000Z,9.1
2022-10-04T04:46:55.000Z,9
2022-10-04T04:49:39.000Z,9
2022-10-04T04:52:24.000Z,8.9
2022-10-04T04:53:42.000Z,8.9
2022-10-04T04:55:09.000Z,8.9
2022-10-04T04:57:53.000Z,8.9
2022-10-04T05:00:38.000Z,8.8
2022-10-04T05:03:23.000Z,8.8
2022-10-04T05:06:07.000Z,8.8
2022-10-04T05:08:52.000Z,8.8
2022-10-04T05:11:37.000Z,8.8
2022-10-04T05:14:21.000Z,8.8
2022-10-04T05:17:06.000Z,8.8
2022-10-04T05:19:50.000Z,8.7
2022-10-04T05:21:08.000Z,8.7
2022-10-04T05:22:35.000Z,8.7
2022-10-04T05:25:20.000Z,8.7
2022-10-04T05:28:04.000Z,8.7
2022-10-04T05:30:49.000Z,8.7
2022-10-04T05:33:34.000Z,8.7
2022-10-04T05:36:18.000Z,8.7
2022-10-04T05:39:03.000Z,8.6
2022-10-04T05:41:48.000Z,8.5
2022-10-04T05:44:49.000Z,8.5
2022-10-04T05:47:33.000Z,8.4
2022-10-04T05:48:51.442Z,8.4
2022-10-04T05:50:18.000Z,8.4
2022-10-04T05:53:03.000Z,8.4
2022-10-04T05:55:47.000Z,8.4
2022-10-04T05:58:32.000Z,8.4
2022-10-04T06:01:16.000Z,8.4
2022-10-04T06:04:01.000Z,8.4
2022-10-04T06:06:46.000Z,8.4
2022-10-04T06:09:30.000Z,8.4
2022-10-04T06:12:15.000Z,8.5
2022-10-04T06:15:00.000Z,8.5
2022-10-04T06:16:17.000Z,8.5
2022-10-04T06:17:44.000Z,8.5
2022-10-04T06:20:29.000Z,8.6
2022-10-04T06:23:14.000Z,8.6
2022-10-04T06:25:58.000Z,8.7
2022-10-04T06:28:43.000Z,8.7
2022-10-04T06:31:27.000Z,8.7
2022-10-04T06:34:12.000Z,8.7
2022-10-04T06:36:57.000Z,8.8
2022-10-04T06:39:41.000Z,8.9
2022-10-04T06:42:26.000Z,9
2022-10-04T06:43:44.000Z,9.1
2022-10-04T06:45:11.000Z,9.1
2022-10-04T06:47:55.000Z,9.2
2022-10-04T06:50:40.000Z,9.3
2022-10-04T06:53:25.000Z,9.4
2022-10-04T06:56:09.000Z,9.5
2022-10-04T06:58:54.000Z,9.6
2022-10-04T07:01:39.000Z,9.8
2022-10-04T07:04:23.000Z,9.9
2022-10-04T07:07:08.000Z,10
2022-10-04T07:09:52.000Z,10.2
2022-10-04T07:11:10.000Z,10.3
2022-10-04T07:12:37.000Z,10.3
2022-10-04T07:15:22.000Z,10.4
2022-10-04T07:18:06.000Z,10.5
2022-10-04T07:20:51.000Z,10.6
2022-10-04T07:23:36.000Z,10.8
2022-10-04T07:26:20.000Z,10.8
2022-10-04T07:29:05.000Z,11
2022-10-04T07:31:50.000Z,11
2022-10-04T07:34:34.000Z,11.1
2022-10-04T07:37:19.000Z,11.3
2022-10-04T07:38:37.000Z,11.4
2022-10-04T07:40:03.000Z,11.5
2022-10-04T07:42:48.000Z,11.5
2022-10-04T07:45:33.000Z,11.7
2022-10-04T07:48:17.000Z,11.9
2022-10-04T07:51:02.000Z,12.1
2022-10-04T07:53:47.000Z,12.4
2022-10-04T07:56:31.000Z,12.4
2022-10-04T07:59:16.000Z,12.5
2022-10-04T08:02:01.000Z,12.6
2022-10-04T08:04:45.000Z,12.7
2022-10-04T08:06:03.000Z,12.9
2022-10-04T08:07:30.000Z,12.9
2022-10-04T08:10:15.000Z,13.1
2022-10-04T08:12:59.000Z,13.8
2022-10-04T08:15:44.000Z,14
2022-10-04T08:18:28.000Z,13.9
2022-10-04T08:21:13.000Z,14
2022-10-04T08:23:58.000Z,14.3
2022-10-04T08:26:42.000Z,14.3
2022-10-04T08:29:27.000Z,14.1
2022-10-04T08:32:12.000Z,14.2
2022-10-04T08:33:29.000Z,14.2
2022-10-04T08:34:56.000Z,14.2
2022-10-04T08:37:41.000Z,14.4
2022-10-04T08:40:26.000Z,14.6
2022-10-04T08:43:10.000Z,15.4
2022-10-04T08:48:40.000Z,15.5
2022-10-04T08:51:24.000Z,15.9
2022-10-04T08:54:09.000Z,16.3
2022-10-04T08:56:53.000Z,16
2022-10-04T08:59:38.000Z,16.5
2022-10-04T09:00:56.000Z,16.2
2022-10-04T09:02:23.000Z,15.9
2022-10-04T09:05:07.000Z,16
2022-10-04T09:07:52.000Z,17.1
2022-10-04T09:10:37.000Z,17.8
2022-10-04T09:13:21.000Z,17.7
2022-10-04T09:16:06.000Z,16.4
2022-10-04T09:18:51.000Z,16
2022-10-04T09:21:35.000Z,15.8
2022-10-04T09:24:20.000Z,15.8
2022-10-04T09:27:04.000Z,16.3
2022-10-04T09:28:22.000Z,16.7
2022-10-04T09:29:49.000Z,16.6
2022-10-04T09:32:34.000Z,16.9
2022-10-04T09:35:18.000Z,16.8
2022-10-04T09:38:03.000Z,16.5
2022-10-04T09:40:48.000Z,16.5
2022-10-04T09:43:32.000Z,16.5
2022-10-04T09:46:17.000Z,16.4
2022-10-04T09:49:02.000Z,16.3
2022-10-04T09:51:46.000Z,16.6
2022-10-04T09:54:31.000Z,16.7
2022-10-04T09:55:49.000Z,17.1
2022-10-04T09:57:16.000Z,17.7
2022-10-04T10:00:00.000Z,18.1
2022-10-04T10:02:45.000Z,18
2022-10-04T10:05:29.000Z,17.5
2022-10-04T10:08:14.000Z,17.5
2022-10-04T10:10:59.000Z,17.8
2022-10-04T10:13:43.000Z,17.9
2022-10-04T10:16:28.000Z,17.6
2022-10-04T10:19:13.000Z,17.2
2022-10-04T10:21:57.000Z,17.1
2022-10-04T10:23:15.000Z,17.1
2022-10-04T10:24:42.000Z,17.1
2022-10-04T10:27:27.000Z,17.1
2022-10-04T10:30:11.000Z,17.1
2022-10-04T10:32:56.000Z,17.8
2022-10-04T10:35:40.000Z,18
2022-10-04T10:38:25.000Z,17.4
2022-10-04T10:41:10.000Z,17.1
2022-10-04T10:43:54.000Z,16.9
2022-10-04T10:46:39.000Z,17.1
2022-10-04T10:49:24.000Z,17.2
2022-10-04T10:50:42.000Z,17.1
2022-10-04T10:52:08.000Z,17
2022-10-04T10:54:53.000Z,17
2022-10-04T10:57:38.000Z,17
2022-10-04T11:00:22.000Z,17.1
2022-10-04T11:03:07.000Z,17.2
2022-10-04T11:05:52.000Z,17.2
2022-10-04T11:08:36.000Z,17.3
2022-10-04T11:11:21.000Z,17.2
2022-10-04T11:14:05.000Z,17.3
2022-10-04T11:16:50.000Z,17.3
2022-10-04T11:19:35.000Z,17.2
2022-10-04T11:22:19.000Z,17.2
2022-10-04T11:25:04.000Z,17.2
2022-10-04T11:27:49.000Z,17.3
2022-10-04T11:30:33.000Z,17.3
2022-10-04T11:33:18.000Z,17.4
2022-10-04T11:36:03.000Z,17.5
2022-10-04T11:38:47.000Z,17.6
2022-10-04T11:41:32.000Z,17.5
2022-10-04T11:45:34.000Z,17.4
2022-10-04T11:47:01.000Z,17.4
2022-10-04T11:49:46.000Z,17.4
2022-10-04T11:52:30.000Z,17.5
2022-10-04T11:55:15.000Z,17.5
2022-10-04T11:58:00.000Z,17.5
2022-10-04T12:00:44.000Z,17.4
2022-10-04T12:03:29.000Z,17.5
2022-10-04T12:06:14.000Z,17.5
2022-10-04T12:08:58.000Z,17.6
2022-10-04T12:11:43.000Z,17.7
2022-10-04T12:13:01.000Z,17.7
2022-10-04T12:14:28.000Z,17.7
2022-10-04T12:17:12.000Z,17.7
2022-10-04T12:22:41.000Z,17.6
2022-10-04T12:25:26.000Z,17.8
2022-10-04T12:28:11.000Z,17.9
2022-10-04T12:30:55.000Z,17.9
2022-10-04T12:33:40.000Z,18
2022-10-04T12:36:25.000Z,18
2022-10-04T12:39:09.000Z,18.1
2022-10-04T12:40:27.000Z,18
2022-10-04T12:41:54.000Z,18
2022-10-04T12:44:39.000Z,18
2022-10-04T12:47:23.000Z,18.1
2022-10-04T12:50:08.000Z,18.3
2022-10-04T12:52:52.000Z,18.3
2022-10-04T12:55:37.000Z,18.3
2022-10-04T12:58:22.000Z,18.4
2022-10-04T13:01:06.000Z,18.4
2022-10-04T13:03:51.000Z,18.5
2022-10-04T13:06:36.000Z,18.5
2022-10-04T13:09:20.000Z,18.5
2022-10-04T13:12:05.000Z,18.6
2022-10-04T13:14:50.000Z,18.7
2022-10-04T13:17:34.000Z,18.6
2022-10-04T13:20:19.000Z,18.7
2022-10-04T13:23:04.000Z,18.6
2022-10-04T13:25:48.000Z,18.7
2022-10-04T13:28:33.000Z,18.8
2022-10-04T13:31:17.000Z,18.9
2022-10-04T13:34:02.000Z,18.9
2022-10-04T13:35:20.000Z,18.8
2022-10-04T13:36:47.000Z,18.8
2022-10-04T13:42:16.000Z,18.9
2022-10-04T13:45:01.000Z,18.9
2022-10-04T13:47:45.000Z,19
2022-10-04T13:50:30.000Z,19.1
2022-10-04T13:53:15.000Z,19.1
2022-10-04T13:55:59.000Z,19.1
2022-10-04T13:58:44.000Z,19.2
2022-10-04T14:01:29.000Z,19.2
2022-10-04T14:04:13.000Z,19.2
2022-10-04T14:09:59.000Z,19.2
2022-10-04T14:12:43.000Z,19.3
2022-10-04T14:15:28.000Z,19.3
2022-10-04T14:18:29.000Z,19.3
2022-10-04T14:23:58.000Z,19
2022-10-04T14:26:43.000Z,19
2022-10-04T14:29:28.000Z,19
2022-10-04T14:32:12.000Z,19.1
2022-10-04T14:33:30.000Z,18.9
2022-10-04T14:34:57.000Z,18.8
2022-10-04T14:37:42.000Z,18.7
2022-10-04T14:40:26.000Z,18.5
2022-10-04T14:43:11.000Z,18.4
2022-10-04T14:45:56.000Z,18.4
2022-10-04T14:48:40.000Z,18.4
2022-10-04T14:51:25.000Z,18.4
2022-10-04T14:54:09.000Z,18.5
2022-10-04T14:56:54.000Z,18.6
2022-10-04T14:59:39.000Z,18.7
2022-10-04T15:02:23.000Z,18.8
2022-10-04T15:05:08.000Z,18.8
2022-10-04T15:07:53.000Z,18.8
2022-10-04T15:10:54.000Z,18.8
2022-10-04T15:13:38.000Z,18.8
2022-10-04T15:16:23.000Z,18.8
2022-10-04T15:19:08.000Z,18.8
2022-10-04T15:21:52.000Z,18.8
2022-10-04T15:24:37.000Z,18.8
2022-10-04T15:27:21.000Z,18.8
2022-10-04T15:28:39.000Z,18.8
2022-10-04T15:30:06.000Z,18.8
2022-10-04T15:32:51.000Z,18.9
2022-10-04T15:35:35.000Z,18.8
2022-10-04T15:38:20.000Z,18.8
2022-10-04T15:41:05.000Z,18.7
2022-10-04T15:43:50.000Z,18.7
2022-10-04T15:46:50.000Z,18.7
2022-10-04T15:49:35.000Z,18.6
2022-10-04T15:52:20.000Z,18.5
2022-10-04T15:55:04.000Z,18.5
2022-10-04T15:56:22.000Z,18.5
2022-10-04T15:57:49.000Z,18.5
2022-10-04T16:00:34.000Z,18.5
2022-10-04T16:03:18.000Z,18.5
2022-10-04T16:08:47.000Z,18.3
2022-10-04T16:11:32.000Z,18.2
2022-10-04T16:14:17.000Z,18.1
2022-10-04T16:17:01.000Z,17.9
2022-10-04T16:19:46.000Z,17.7
2022-10-04T16:22:31.000Z,17.5
2022-10-04T16:23:48.000Z,17.2
2022-10-04T16:25:15.000Z,17.1
2022-10-04T16:28:00.000Z,17
2022-10-04T16:30:45.000Z,16.8
2022-10-04T16:33:29.000Z,16.5
2022-10-04T16:36:14.000Z,16.3
2022-10-04T16:38:59.000Z,16.1
2022-10-04T16:41:43.000Z,16
2022-10-04T16:44:44.000Z,15.8
2022-10-04T16:47:29.000Z,15.7
2022-10-04T16:50:13.000Z,15.5
2022-10-04T16:51:31.000Z,15.4
2022-10-04T16:52:58.000Z,15.3
2022-10-04T16:55:43.000Z,15.2
2022-10-04T16:58:27.000Z,15.1
2022-10-04T17:01:12.000Z,15
2022-10-04T17:03:57.000Z,14.9
2022-10-04T17:06:41.000Z,14.8
2022-10-04T17:09:26.000Z,14.7
2022-10-04T17:12:11.000Z,14.6
2022-10-04T17:14:55.000Z,14.4
2022-10-04T17:17:40.000Z,14.4
2022-10-04T17:18:58.000Z,14.3
2022-10-04T17:20:25.000Z,14.2
2022-10-04T17:23:09.000Z,14.2
2022-10-04T17:25:54.000Z,14.1
2022-10-04T17:28:38.000Z,14
2022-10-04T17:31:23.000Z,14
2022-10-04T17:34:08.000Z,14
2022-10-04T17:36:52.000Z,13.9
2022-10-04T17:39:37.000Z,13.8
2022-10-04T17:42:22.000Z,13.7
2022-10-04T17:45:06.000Z,13.6
2022-10-04T17:46:24.000Z,13.5
2022-10-04T17:47:51.000Z,13.4
2022-10-04T17:50:36.000Z,13.4
2022-10-04T17:53:20.000Z,13.2
2022-10-04T17:56:05.000Z,13.1
2022-10-04T17:58:49.000Z,13
2022-10-04T18:01:34.000Z,12.9
2022-10-04T18:04:19.000Z,12.8
2022-10-04T18:07:03.000Z,12.8
2022-10-04T18:09:48.000Z,12.7
2022-10-04T18:12:33.000Z,12.7
2022-10-04T18:15:17.000Z,12.7
2022-10-04T18:18:02.000Z,12.6
2022-10-04T18:20:47.000Z,12.5
2022-10-04T18:23:31.000Z,12.5
2022-10-04T18:26:16.000Z,12.5
2022-10-04T18:29:01.000Z,12.3
2022-10-04T18:31:45.000Z,12.2
2022-10-04T18:34:30.000Z,12.2
2022-10-04T18:37:14.000Z,12.1
2022-10-04T18:39:59.000Z,12.1
2022-10-04T18:41:17.000Z,12
2022-10-04T18:42:44.000Z,12
2022-10-04T18:45:28.000Z,12
2022-10-04T18:48:13.000Z,11.9
2022-10-04T18:50:58.000Z,11.8
2022-10-04T18:53:42.000Z,11.7
2022-10-04T18:56:27.000Z,11.6
2022-10-04T18:59:12.000Z,11.6
2022-10-04T19:01:56.000Z,11.7
2022-10-04T19:04:41.000Z,11.7
2022-10-04T19:07:25.000Z,11.8
2022-10-04T19:08:43.000Z,11.8
2022-10-04T19:10:10.000Z,11.8
2022-10-04T19:12:55.000Z,11.8
2022-10-04T19:15:39.000Z,11.7
2022-10-04T19:18:24.000Z,11.6
2022-10-04T19:21:09.000Z,11.5
2022-10-04T19:23:53.000Z,11.4
2022-10-04T19:26:38.000Z,11.4
2022-10-04T19:29:23.000Z,11.3
2022-10-04T19:32:07.000Z,11.1
2022-10-04T19:34:52.000Z,11.1
2022-10-04T19:36:10.000Z,11.1
2022-10-04T19:37:37.000Z,11.1
2022-10-04T19:40:21.000Z,11.1
2022-10-04T19:43:06.000Z,11.1
2022-10-04T19:45:50.000Z,11
2022-10-04T19:48:35.000Z,11
2022-10-04T19:51:20.000Z,11
2022-10-04T19:54:04.000Z,11
2022-10-04T19:56:49.000Z,11.1
2022-10-04T19:59:34.000Z,11.1
2022-10-04T20:02:18.000Z,11
2022-10-04T20:03:36.000Z,11
2022-10-04T20:05:03.000Z,11
2022-10-04T20:07:48.000Z,11
2022-10-04T20:10:32.000Z,10.9
2022-10-04T20:13:17.000Z,10.9
2022-10-04T20:16:02.000Z,10.8
2022-10-04T20:18:46.000Z,10.7
2022-10-04T20:21:31.000Z,10.6
2022-10-04T20:24:15.000Z,10.6
2022-10-04T20:27:00.000Z,10.5
2022-10-04T20:29:45.000Z,10.5
2022-10-04T20:32:29.000Z,10.6
2022-10-04T20:35:14.000Z,10.6
2022-10-04T20:37:59.000Z,10.6
2022-10-04T20:40:43.000Z,10.6
2022-10-04T20:43:28.000Z,10.6
2022-10-04T20:46:13.000Z,10.6
2022-10-04T20:48:57.000Z,10.6
2022-10-04T20:51:42.000Z,10.5
2022-10-04T20:57:11.000Z,10.4
2022-10-04T20:58:29.000Z,10.3
2022-10-04T20:59:56.000Z,10.3
2022-10-04T21:02:40.000Z,10.3
2022-10-04T21:05:25.000Z,10.2
2022-10-04T21:08:10.000Z,10.2
2022-10-04T21:10:54.000Z,10.2
2022-10-04T21:13:39.000Z,10.2
2022-10-04T21:16:24.000Z,10.2
2022-10-04T21:19:08.000Z,10.2
2022-10-04T21:21:53.000Z,10.2
2022-10-04T21:24:38.000Z,10.3
2022-10-04T21:25:55.000Z,10.3
2022-10-04T21:27:22.000Z,10.3
2022-10-04T21:30:07.000Z,10.3
2022-10-04T21:32:51.000Z,10.4
2022-10-04T21:35:36.000Z,10.4
2022-10-04T21:38:21.000Z,10.3
2022-10-04T21:41:05.000Z,10.2
2022-10-04T21:43:50.000Z,10.2
2022-10-04T21:46:35.000Z,10.1
2022-10-04T21:49:19.000Z,10.1
2022-10-04T21:52:04.000Z,10
2022-10-04T21:53:22.000Z,10
2022-10-04T21:54:49.000Z,10
2022-10-04T21:57:33.000Z,10
2022-10-04T22:00:18.000Z,9.9
2022-10-04T22:03:02.000Z,10
2022-10-04T22:05:47.000Z,10
2022-10-04T22:08:32.000Z,10.2
2022-10-04T22:11:16.000Z,10.2
2022-10-04T22:14:01.000Z,10.2
2022-10-04T22:16:46.000Z,10.2
2022-10-04T22:19:30.000Z,10.2
2022-10-04T22:20:48.000Z,10.2
2022-10-04T22:22:15.000Z,10.2
2022-10-04T22:25:00.000Z,10.2
2022-10-04T22:27:44.000Z,10.2
2022-10-04T22:30:29.000Z,10.2
2022-10-04T22:33:14.000Z,10.1
2022-10-04T22:35:58.000Z,10.1
2022-10-04T22:38:43.000Z,10.1
2022-10-04T22:41:27.000Z,10.1
2022-10-04T22:44:12.000Z,10.2
2022-10-04T22:46:57.000Z,10.2
2022-10-04T22:49:41.000Z,10.3
2022-10-04T22:52:26.000Z,10.3
2022-10-04T22:55:11.000Z,10.3
2022-10-04T22:57:55.000Z,10.4
2022-10-04T23:00:40.000Z,10.4
2022-10-04T23:03:41.000Z,10.4
2022-10-04T23:06:26.000Z,10.4
2022-10-04T23:09:10.000Z,10.3
2022-10-04T23:11:55.000Z,10.3
2022-10-04T23:14:40.000Z,10.3
2022-10-04T23:15:57.000Z,10.3
2022-10-04T23:17:24.000Z,10.3
2022-10-04T23:20:09.000Z,10.4
2022-10-04T23:22:53.000Z,10.4
2022-10-04T23:25:38.000Z,10.4
2022-10-04T23:28:23.000Z,10.5
2022-10-04T23:31:07.000Z,10.5
2022-10-04T23:33:52.000Z,10.5
2022-10-04T23:36:37.000Z,10.6
2022-10-04T23:39:21.000Z,10.6
2022-10-04T23:42:06.000Z,10.6
2022-10-04T23:44:51.000Z,10.5
2022-10-04T23:47:35.000Z,10.5
2022-10-04T23:50:20.000Z,10.5
2022-10-04T23:53:05.000Z,10.5
2022-10-04T23:55:49.000Z,10.5
2022-10-04T23:58:34.000Z,10.4
